sensor_id;sensor_type;location;lat;lon;timestamp;P1;durP1;ratioP1;P2;durP2;ratioP2
3698;SDS011;1865;50.918;7.092;2023-06-26T00:01:49;12.17;;;6.37;;
3698;SDS011;1865;50.918;7.092;2023-06-26T00:04:15;12.93;;;7.10;;
3698;SDS011;1865;50.918;7.092;2023-06-26T00:06:40;15.40;;;6.90;;
3698;SDS011;1865;50.918;7.092;2023-06-26T00:09:06;11.80;;;6.53;;
3698;SDS011;1865;50.918;7.092;2023-06-26T00:11:32;12.73;;;6.67;;
3698;SDS011;1865;50.918;7.092;2023-06-26T00:13:58;15.50;;;7.33;;
3698;SDS011;1865;50.918;7.092;2023-06-26T00:16:25;14.90;;;6.83;;
3698;SDS011;1865;50.918;7.092;2023-06-26T00:18:52;13.50;;;7.20;;
3698;SDS011;1865;50.918;7.092;2023-06-26T00:21:18;14.20;;;6.97;;
3698;SDS011;1865;50.918;7.092;2023-06-26T00:23:44;14.33;;;7.00;;
3698;SDS011;1865;50.918;7.092;2023-06-26T00:26:10;13.33;;;7.00;;
3698;SDS011;1865;50.918;7.092;2023-06-26T00:28:36;13.03;;;7.30;;
3698;SDS011;1865;50.918;7.092;2023-06-26T00:31:01;16.20;;;7.73;;
3698;SDS011;1865;50.918;7.092;2023-06-26T00:33:27;14.23;;;7.23;;
3698;SDS011;1865;50.918;7.092;2023-06-26T00:35:52;13.10;;;6.80;;
3698;SDS011;1865;50.918;7.092;2023-06-26T00:38:19;13.23;;;7.20;;
3698;SDS011;1865;50.918;7.092;2023-06-26T00:40:45;13.40;;;6.90;;
3698;SDS011;1865;50.918;7.092;2023-06-26T00:43:10;12.13;;;7.40;;
3698;SDS011;1865;50.918;7.092;2023-06-26T00:45:36;13.57;;;7.27;;
3698;SDS011;1865;50.918;7.092;2023-06-26T00:48:01;14.47;;;7.70;;
3698;SDS011;1865;50.918;7.092;2023-06-26T00:50:27;12.30;;;7.17;;
3698;SDS011;1865;50.918;7.092;2023-06-26T00:52:53;11.77;;;6.93;;
3698;SDS011;1865;50.918;7.092;2023-06-26T00:55:25;14.83;;;7.37;;
3698;SDS011;1865;50.918;7.092;2023-06-26T00:57:51;12.03;;;6.90;;
3698;SDS011;1865;50.918;7.092;2023-06-26T01:00:17;13.80;;;7.67;;
3698;SDS011;1865;50.918;7.092;2023-06-26T01:02:43;11.13;;;6.70;;
3698;SDS011;1865;50.918;7.092;2023-06-26T01:05:09;15.53;;;6.67;;
3698;SDS011;1865;50.918;7.092;2023-06-26T01:07:37;14.10;;;7.70;;
3698;SDS011;1865;50.918;7.092;2023-06-26T01:10:04;19.57;;;8.73;;
3698;SDS011;1865;50.918;7.092;2023-06-26T01:12:31;13.30;;;7.40;;
3698;SDS011;1865;50.918;7.092;2023-06-26T01:14:58;14.30;;;7.73;;
3698;SDS011;1865;50.918;7.092;2023-06-26T01:17:24;13.00;;;7.20;;
3698;SDS011;1865;50.918;7.092;2023-06-26T01:19:52;13.07;;;7.63;;
3698;SDS011;1865;50.918;7.092;2023-06-26T01:22:21;14.70;;;7.97;;
3698;SDS011;1865;50.918;7.092;2023-06-26T01:25:10;12.97;;;7.23;;
3698;SDS011;1865;50.918;7.092;2023-06-26T01:27:38;12.53;;;7.83;;
3698;SDS011;1865;50.918;7.092;2023-06-26T01:30:04;12.43;;;7.00;;
3698;SDS011;1865;50.918;7.092;2023-06-26T01:32:31;13.17;;;7.77;;
3698;SDS011;1865;50.918;7.092;2023-06-26T01:34:58;14.03;;;8.23;;
3698;SDS011;1865;50.918;7.092;2023-06-26T01:37:24;14.57;;;7.70;;
3698;SDS011;1865;50.918;7.092;2023-06-26T01:39:50;14.50;;;7.70;;
3698;SDS011;1865;50.918;7.092;2023-06-26T01:42:15;14.50;;;8.53;;
3698;SDS011;1865;50.918;7.092;2023-06-26T01:44:44;15.20;;;7.40;;
3698;SDS011;1865;50.918;7.092;2023-06-26T01:47:12;12.70;;;7.43;;
3698;SDS011;1865;50.918;7.092;2023-06-26T01:49:46;14.33;;;7.97;;
3698;SDS011;1865;50.918;7.092;2023-06-26T01:52:19;13.20;;;7.23;;
3698;SDS011;1865;50.918;7.092;2023-06-26T01:55:09;13.03;;;7.63;;
3698;SDS011;1865;50.918;7.092;2023-06-26T01:57:42;14.23;;;8.13;;
3698;SDS011;1865;50.918;7.092;2023-06-26T02:00:09;14.77;;;7.67;;
3698;SDS011;1865;50.918;7.092;2023-06-26T02:02:36;13.67;;;7.80;;
3698;SDS011;1865;50.918;7.092;2023-06-26T02:05:02;14.27;;;8.40;;
3698;SDS011;1865;50.918;7.092;2023-06-26T02:07:27;15.73;;;7.30;;
3698;SDS011;1865;50.918;7.092;2023-06-26T02:09:53;16.13;;;7.97;;
3698;SDS011;1865;50.918;7.092;2023-06-26T02:12:19;13.30;;;7.93;;
3698;SDS011;1865;50.918;7.092;2023-06-26T02:14:44;14.57;;;7.80;;
3698;SDS011;1865;50.918;7.092;2023-06-26T02:17:10;12.77;;;7.27;;
3698;SDS011;1865;50.918;7.092;2023-06-26T02:19:35;13.10;;;8.20;;
3698;SDS011;1865;50.918;7.092;2023-06-26T02:22:01;14.30;;;7.83;;
3698;SDS011;1865;50.918;7.092;2023-06-26T02:24:27;13.93;;;8.30;;
3698;SDS011;1865;50.918;7.092;2023-06-26T02:26:55;14.43;;;8.13;;
3698;SDS011;1865;50.918;7.092;2023-06-26T02:29:21;13.47;;;7.73;;
3698;SDS011;1865;50.918;7.092;2023-06-26T02:31:47;15.77;;;8.57;;
3698;SDS011;1865;50.918;7.092;2023-06-26T02:34:13;12.93;;;7.67;;
3698;SDS011;1865;50.918;7.092;2023-06-26T02:36:39;14.80;;;8.23;;
3698;SDS011;1865;50.918;7.092;2023-06-26T02:39:05;14.17;;;7.90;;
3698;SDS011;1865;50.918;7.092;2023-06-26T02:41:30;14.70;;;7.90;;
3698;SDS011;1865;50.918;7.092;2023-06-26T02:43:56;16.37;;;8.20;;
3698;SDS011;1865;50.918;7.092;2023-06-26T02:46:22;14.47;;;8.23;;
3698;SDS011;1865;50.918;7.092;2023-06-26T02:48:47;13.97;;;8.07;;
3698;SDS011;1865;50.918;7.092;2023-06-26T02:51:12;13.63;;;7.87;;
3698;SDS011;1865;50.918;7.092;2023-06-26T02:53:38;15.40;;;8.40;;
3698;SDS011;1865;50.918;7.092;2023-06-26T02:56:04;14.73;;;9.10;;
3698;SDS011;1865;50.918;7.092;2023-06-26T02:58:29;14.57;;;8.23;;
3698;SDS011;1865;50.918;7.092;2023-06-26T03:00:55;14.33;;;8.77;;
3698;SDS011;1865;50.918;7.092;2023-06-26T03:03:21;17.20;;;8.93;;
3698;SDS011;1865;50.918;7.092;2023-06-26T03:05:46;13.93;;;8.70;;
3698;SDS011;1865;50.918;7.092;2023-06-26T03:08:12;12.73;;;8.20;;
3698;SDS011;1865;50.918;7.092;2023-06-26T03:10:37;15.13;;;7.60;;
3698;SDS011;1865;50.918;7.092;2023-06-26T03:13:03;13.20;;;7.53;;
3698;SDS011;1865;50.918;7.092;2023-06-26T03:15:28;14.13;;;8.20;;
3698;SDS011;1865;50.918;7.092;2023-06-26T03:17:54;12.13;;;7.43;;
3698;SDS011;1865;50.918;7.092;2023-06-26T03:20:19;20.70;;;9.47;;
3698;SDS011;1865;50.918;7.092;2023-06-26T03:22:45;13.80;;;8.50;;
3698;SDS011;1865;50.918;7.092;2023-06-26T03:25:10;14.07;;;8.83;;
3698;SDS011;1865;50.918;7.092;2023-06-26T03:27:36;13.17;;;7.70;;
3698;SDS011;1865;50.918;7.092;2023-06-26T03:30:01;15.27;;;8.90;;
3698;SDS011;1865;50.918;7.092;2023-06-26T03:32:27;15.60;;;9.10;;
3698;SDS011;1865;50.918;7.092;2023-06-26T03:34:53;11.77;;;7.80;;
3698;SDS011;1865;50.918;7.092;2023-06-26T03:37:18;17.37;;;8.47;;
3698;SDS011;1865;50.918;7.092;2023-06-26T03:39:44;13.80;;;8.30;;
3698;SDS011;1865;50.918;7.092;2023-06-26T03:42:09;14.93;;;8.00;;
3698;SDS011;1865;50.918;7.092;2023-06-26T03:44:35;13.97;;;8.07;;
3698;SDS011;1865;50.918;7.092;2023-06-26T03:47:00;14.40;;;8.60;;
3698;SDS011;1865;50.918;7.092;2023-06-26T03:49:26;14.87;;;9.23;;
3698;SDS011;1865;50.918;7.092;2023-06-26T03:51:51;16.50;;;8.67;;
3698;SDS011;1865;50.918;7.092;2023-06-26T03:54:17;18.53;;;8.70;;
3698;SDS011;1865;50.918;7.092;2023-06-26T03:56:42;13.40;;;8.40;;
3698;SDS011;1865;50.918;7.092;2023-06-26T03:59:09;14.47;;;7.90;;
3698;SDS011;1865;50.918;7.092;2023-06-26T04:01:35;12.40;;;7.90;;
3698;SDS011;1865;50.918;7.092;2023-06-26T04:04:02;12.50;;;7.63;;
3698;SDS011;1865;50.918;7.092;2023-06-26T04:06:28;11.97;;;6.83;;
3698;SDS011;1865;50.918;7.092;2023-06-26T04:08:53;15.07;;;8.07;;
3698;SDS011;1865;50.918;7.092;2023-06-26T04:11:19;14.17;;;7.90;;
3698;SDS011;1865;50.918;7.092;2023-06-26T04:13:44;13.70;;;7.83;;
3698;SDS011;1865;50.918;7.092;2023-06-26T04:16:10;13.23;;;7.00;;
3698;SDS011;1865;50.918;7.092;2023-06-26T04:18:36;15.13;;;8.57;;
3698;SDS011;1865;50.918;7.092;2023-06-26T04:21:09;13.80;;;7.90;;
3698;SDS011;1865;50.918;7.092;2023-06-26T04:23:39;14.03;;;7.90;;
3698;SDS011;1865;50.918;7.092;2023-06-26T04:26:05;14.13;;;9.03;;
3698;SDS011;1865;50.918;7.092;2023-06-26T04:28:32;16.53;;;7.80;;
3698;SDS011;1865;50.918;7.092;2023-06-26T04:30:58;12.30;;;7.53;;
3698;SDS011;1865;50.918;7.092;2023-06-26T04:33:24;15.00;;;7.87;;
3698;SDS011;1865;50.918;7.092;2023-06-26T04:35:50;16.03;;;7.90;;
3698;SDS011;1865;50.918;7.092;2023-06-26T04:38:16;13.00;;;7.90;;
3698;SDS011;1865;50.918;7.092;2023-06-26T04:40:42;13.90;;;8.70;;
3698;SDS011;1865;50.918;7.092;2023-06-26T04:43:07;14.83;;;7.67;;
3698;SDS011;1865;50.918;7.092;2023-06-26T04:45:33;15.50;;;8.40;;
3698;SDS011;1865;50.918;7.092;2023-06-26T04:47:58;13.10;;;6.93;;
3698;SDS011;1865;50.918;7.092;2023-06-26T04:50:25;21.73;;;6.93;;
3698;SDS011;1865;50.918;7.092;2023-06-26T04:52:51;11.67;;;5.80;;
3698;SDS011;1865;50.918;7.092;2023-06-26T04:55:16;10.93;;;5.30;;
3698;SDS011;1865;50.918;7.092;2023-06-26T04:57:42;12.70;;;5.10;;
3698;SDS011;1865;50.918;7.092;2023-06-26T05:00:07;14.80;;;5.77;;
3698;SDS011;1865;50.918;7.092;2023-06-26T05:02:35;11.67;;;5.80;;
3698;SDS011;1865;50.918;7.092;2023-06-26T05:05:01;11.87;;;5.50;;
3698;SDS011;1865;50.918;7.092;2023-06-26T05:07:27;10.27;;;5.47;;
3698;SDS011;1865;50.918;7.092;2023-06-26T05:09:52;14.40;;;5.40;;
3698;SDS011;1865;50.918;7.092;2023-06-26T05:12:18;13.73;;;5.50;;
3698;SDS011;1865;50.918;7.092;2023-06-26T05:14:43;15.30;;;5.63;;
3698;SDS011;1865;50.918;7.092;2023-06-26T05:17:10;16.37;;;5.63;;
3698;SDS011;1865;50.918;7.092;2023-06-26T05:19:36;11.63;;;5.00;;
3698;SDS011;1865;50.918;7.092;2023-06-26T05:22:01;13.30;;;5.30;;
3698;SDS011;1865;50.918;7.092;2023-06-26T05:24:32;13.80;;;5.80;;
3698;SDS011;1865;50.918;7.092;2023-06-26T05:27:02;12.37;;;5.33;;
3698;SDS011;1865;50.918;7.092;2023-06-26T05:29:29;12.70;;;5.30;;
3698;SDS011;1865;50.918;7.092;2023-06-26T05:31:58;13.40;;;4.97;;
3698;SDS011;1865;50.918;7.092;2023-06-26T05:34:24;12.90;;;4.67;;
3698;SDS011;1865;50.918;7.092;2023-06-26T05:36:54;18.20;;;5.50;;
3698;SDS011;1865;50.918;7.092;2023-06-26T05:39:22;17.80;;;5.07;;
3698;SDS011;1865;50.918;7.092;2023-06-26T05:41:48;17.60;;;5.03;;
3698;SDS011;1865;50.918;7.092;2023-06-26T05:44:14;15.87;;;5.47;;
3698;SDS011;1865;50.918;7.092;2023-06-26T05:46:39;11.07;;;5.00;;
3698;SDS011;1865;50.918;7.092;2023-06-26T05:49:05;12.23;;;5.80;;
3698;SDS011;1865;50.918;7.092;2023-06-26T05:51:30;10.93;;;4.50;;
3698;SDS011;1865;50.918;7.092;2023-06-26T05:53:56;10.43;;;4.77;;
3698;SDS011;1865;50.918;7.092;2023-06-26T05:56:22;12.07;;;4.80;;
3698;SDS011;1865;50.918;7.092;2023-06-26T05:58:48;12.50;;;5.13;;
3698;SDS011;1865;50.918;7.092;2023-06-26T06:01:14;12.83;;;4.20;;
3698;SDS011;1865;50.918;7.092;2023-06-26T06:03:40;16.10;;;5.30;;
3698;SDS011;1865;50.918;7.092;2023-06-26T06:06:05;15.90;;;4.83;;
3698;SDS011;1865;50.918;7.092;2023-06-26T06:08:31;11.17;;;4.60;;
3698;SDS011;1865;50.918;7.092;2023-06-26T06:10:57;14.73;;;5.00;;
3698;SDS011;1865;50.918;7.092;2023-06-26T06:13:24;10.20;;;4.53;;
3698;SDS011;1865;50.918;7.092;2023-06-26T06:15:50;11.57;;;4.37;;
3698;SDS011;1865;50.918;7.092;2023-06-26T06:18:16;14.23;;;5.10;;
3698;SDS011;1865;50.918;7.092;2023-06-26T06:20:41;12.60;;;4.93;;
3698;SDS011;1865;50.918;7.092;2023-06-26T06:23:07;9.70;;;4.80;;
3698;SDS011;1865;50.918;7.092;2023-06-26T06:25:32;17.90;;;4.83;;
3698;SDS011;1865;50.918;7.092;2023-06-26T06:27:58;14.80;;;5.00;;
3698;SDS011;1865;50.918;7.092;2023-06-26T06:30:23;12.13;;;4.40;;
3698;SDS011;1865;50.918;7.092;2023-06-26T06:32:49;13.20;;;4.23;;
3698;SDS011;1865;50.918;7.092;2023-06-26T06:35:17;16.73;;;4.67;;
3698;SDS011;1865;50.918;7.092;2023-06-26T06:37:43;16.93;;;4.00;;
3698;SDS011;1865;50.918;7.092;2023-06-26T06:40:09;26.77;;;4.93;;
3698;SDS011;1865;50.918;7.092;2023-06-26T06:42:35;12.73;;;4.30;;
3698;SDS011;1865;50.918;7.092;2023-06-26T06:45:02;14.90;;;4.53;;
3698;SDS011;1865;50.918;7.092;2023-06-26T06:47:28;11.60;;;5.00;;
3698;SDS011;1865;50.918;7.092;2023-06-26T06:49:54;14.77;;;4.60;;
3698;SDS011;1865;50.918;7.092;2023-06-26T06:52:19;14.13;;;4.80;;
3698;SDS011;1865;50.918;7.092;2023-06-26T06:54:54;9.80;;;4.27;;
3698;SDS011;1865;50.918;7.092;2023-06-26T06:57:23;15.20;;;4.60;;
3698;SDS011;1865;50.918;7.092;2023-06-26T06:59:49;13.00;;;5.17;;
3698;SDS011;1865;50.918;7.092;2023-06-26T07:02:17;15.53;;;4.10;;
3698;SDS011;1865;50.918;7.092;2023-06-26T07:04:43;16.30;;;4.83;;
3698;SDS011;1865;50.918;7.092;2023-06-26T07:07:09;15.87;;;4.83;;
3698;SDS011;1865;50.918;7.092;2023-06-26T07:09:35;15.20;;;4.30;;
3698;SDS011;1865;50.918;7.092;2023-06-26T07:12:03;13.80;;;4.87;;
3698;SDS011;1865;50.918;7.092;2023-06-26T07:14:29;14.10;;;4.13;;
3698;SDS011;1865;50.918;7.092;2023-06-26T07:16:54;15.50;;;4.30;;
3698;SDS011;1865;50.918;7.092;2023-06-26T07:19:20;13.03;;;4.40;;
3698;SDS011;1865;50.918;7.092;2023-06-26T07:21:45;18.23;;;4.90;;
3698;SDS011;1865;50.918;7.092;2023-06-26T07:24:12;24.50;;;4.83;;
3698;SDS011;1865;50.918;7.092;2023-06-26T07:26:37;13.00;;;4.00;;
3698;SDS011;1865;50.918;7.092;2023-06-26T07:29:03;12.03;;;4.37;;
3698;SDS011;1865;50.918;7.092;2023-06-26T07:31:29;12.27;;;4.30;;
3698;SDS011;1865;50.918;7.092;2023-06-26T07:33:55;17.83;;;4.90;;
3698;SDS011;1865;50.918;7.092;2023-06-26T07:36:20;15.20;;;4.50;;
3698;SDS011;1865;50.918;7.092;2023-06-26T07:38:46;16.67;;;4.17;;
3698;SDS011;1865;50.918;7.092;2023-06-26T07:41:11;13.20;;;4.47;;
3698;SDS011;1865;50.918;7.092;2023-06-26T07:43:37;15.03;;;4.53;;
3698;SDS011;1865;50.918;7.092;2023-06-26T07:46:02;17.67;;;4.93;;
3698;SDS011;1865;50.918;7.092;2023-06-26T07:48:28;14.50;;;4.37;;
3698;SDS011;1865;50.918;7.092;2023-06-26T07:50:53;15.83;;;4.70;;
3698;SDS011;1865;50.918;7.092;2023-06-26T07:53:19;13.97;;;4.70;;
3698;SDS011;1865;50.918;7.092;2023-06-26T07:55:45;14.93;;;4.90;;
3698;SDS011;1865;50.918;7.092;2023-06-26T07:58:10;16.40;;;4.90;;
3698;SDS011;1865;50.918;7.092;2023-06-26T08:00:36;15.30;;;4.77;;
3698;SDS011;1865;50.918;7.092;2023-06-26T08:03:01;14.23;;;4.87;;
3698;SDS011;1865;50.918;7.092;2023-06-26T08:05:27;19.17;;;5.77;;
3698;SDS011;1865;50.918;7.092;2023-06-26T08:07:52;26.37;;;5.23;;
3698;SDS011;1865;50.918;7.092;2023-06-26T08:10:18;11.80;;;4.73;;
3698;SDS011;1865;50.918;7.092;2023-06-26T08:12:44;18.87;;;5.47;;
3698;SDS011;1865;50.918;7.092;2023-06-26T08:15:10;13.40;;;4.50;;
3698;SDS011;1865;50.918;7.092;2023-06-26T08:17:36;20.53;;;5.00;;
3698;SDS011;1865;50.918;7.092;2023-06-26T08:20:03;14.47;;;5.03;;
3698;SDS011;1865;50.918;7.092;2023-06-26T08:22:29;14.70;;;4.43;;
3698;SDS011;1865;50.918;7.092;2023-06-26T08:24:55;14.70;;;4.20;;
3698;SDS011;1865;50.918;7.092;2023-06-26T08:27:21;17.97;;;4.90;;
3698;SDS011;1865;50.918;7.092;2023-06-26T08:29:46;19.57;;;4.50;;
3698;SDS011;1865;50.918;7.092;2023-06-26T08:32:12;17.50;;;4.33;;
3698;SDS011;1865;50.918;7.092;2023-06-26T08:34:37;14.13;;;4.00;;
3698;SDS011;1865;50.918;7.092;2023-06-26T08:37:04;20.70;;;4.63;;
3698;SDS011;1865;50.918;7.092;2023-06-26T08:39:29;16.10;;;4.73;;
3698;SDS011;1865;50.918;7.092;2023-06-26T08:41:55;13.43;;;4.10;;
3698;SDS011;1865;50.918;7.092;2023-06-26T08:44:20;16.50;;;4.83;;
3698;SDS011;1865;50.918;7.092;2023-06-26T08:46:49;15.43;;;5.30;;
3698;SDS011;1865;50.918;7.092;2023-06-26T08:49:18;15.50;;;5.53;;
3698;SDS011;1865;50.918;7.092;2023-06-26T08:51:56;18.00;;;6.73;;
3698;SDS011;1865;50.918;7.092;2023-06-26T08:54:34;17.60;;;5.67;;
3698;SDS011;1865;50.918;7.092;2023-06-26T08:57:02;15.50;;;4.87;;
3698;SDS011;1865;50.918;7.092;2023-06-26T08:59:30;16.97;;;5.10;;
3698;SDS011;1865;50.918;7.092;2023-06-26T09:01:56;14.90;;;4.13;;
3698;SDS011;1865;50.918;7.092;2023-06-26T09:04:21;12.63;;;4.13;;
3698;SDS011;1865;50.918;7.092;2023-06-26T09:06:47;11.60;;;4.33;;
3698;SDS011;1865;50.918;7.092;2023-06-26T09:09:12;18.67;;;5.40;;
3698;SDS011;1865;50.918;7.092;2023-06-26T09:11:38;12.40;;;3.80;;
3698;SDS011;1865;50.918;7.092;2023-06-26T09:14:04;16.30;;;4.37;;
3698;SDS011;1865;50.918;7.092;2023-06-26T09:16:32;16.53;;;4.73;;
3698;SDS011;1865;50.918;7.092;2023-06-26T09:19:03;16.07;;;4.40;;
3698;SDS011;1865;50.918;7.092;2023-06-26T09:21:33;19.83;;;4.73;;
3698;SDS011;1865;50.918;7.092;2023-06-26T09:23:59;22.63;;;4.00;;
3698;SDS011;1865;50.918;7.092;2023-06-26T09:26:25;18.27;;;4.77;;
3698;SDS011;1865;50.918;7.092;2023-06-26T09:28:51;20.47;;;4.90;;
3698;SDS011;1865;50.918;7.092;2023-06-26T09:31:16;14.87;;;3.73;;
3698;SDS011;1865;50.918;7.092;2023-06-26T09:33:42;10.63;;;3.87;;
3698;SDS011;1865;50.918;7.092;2023-06-26T09:36:19;18.90;;;4.30;;
3698;SDS011;1865;50.918;7.092;2023-06-26T09:38:49;21.03;;;4.00;;
3698;SDS011;1865;50.918;7.092;2023-06-26T09:41:18;13.20;;;3.30;;
3698;SDS011;1865;50.918;7.092;2023-06-26T09:43:48;15.63;;;4.37;;
3698;SDS011;1865;50.918;7.092;2023-06-26T09:46:24;14.30;;;3.40;;
3698;SDS011;1865;50.918;7.092;2023-06-26T09:48:57;17.50;;;4.47;;
3698;SDS011;1865;50.918;7.092;2023-06-26T09:51:26;16.80;;;4.70;;
3698;SDS011;1865;50.918;7.092;2023-06-26T09:53:51;12.93;;;3.87;;
3698;SDS011;1865;50.918;7.092;2023-06-26T09:56:17;12.63;;;3.47;;
3698;SDS011;1865;50.918;7.092;2023-06-26T09:58:43;13.30;;;3.33;;
3698;SDS011;1865;50.918;7.092;2023-06-26T10:01:09;19.50;;;3.53;;
3698;SDS011;1865;50.918;7.092;2023-06-26T10:03:35;14.40;;;3.97;;
3698;SDS011;1865;50.918;7.092;2023-06-26T10:06:01;14.17;;;4.00;;
3698;SDS011;1865;50.918;7.092;2023-06-26T10:08:27;9.97;;;3.20;;
3698;SDS011;1865;50.918;7.092;2023-06-26T10:10:54;11.90;;;3.47;;
3698;SDS011;1865;50.918;7.092;2023-06-26T10:13:22;12.60;;;4.07;;
3698;SDS011;1865;50.918;7.092;2023-06-26T10:15:59;18.93;;;3.00;;
3698;SDS011;1865;50.918;7.092;2023-06-26T10:18:26;18.77;;;4.03;;
3698;SDS011;1865;50.918;7.092;2023-06-26T10:20:55;14.40;;;3.33;;
3698;SDS011;1865;50.918;7.092;2023-06-26T10:23:22;15.93;;;3.53;;
3698;SDS011;1865;50.918;7.092;2023-06-26T10:25:51;13.33;;;3.27;;
3698;SDS011;1865;50.918;7.092;2023-06-26T10:28:20;13.67;;;3.60;;
3698;SDS011;1865;50.918;7.092;2023-06-26T10:30:48;15.07;;;3.57;;
3698;SDS011;1865;50.918;7.092;2023-06-26T10:33:16;13.23;;;3.17;;
3698;SDS011;1865;50.918;7.092;2023-06-26T10:35:45;10.87;;;2.83;;
3698;SDS011;1865;50.918;7.092;2023-06-26T10:38:11;9.73;;;2.93;;
3698;SDS011;1865;50.918;7.092;2023-06-26T10:40:39;14.23;;;3.63;;
3698;SDS011;1865;50.918;7.092;2023-06-26T10:43:13;10.80;;;2.83;;
3698;SDS011;1865;50.918;7.092;2023-06-26T10:45:47;15.27;;;3.40;;
3698;SDS011;1865;50.918;7.092;2023-06-26T10:48:17;10.47;;;2.93;;
3698;SDS011;1865;50.918;7.092;2023-06-26T10:50:42;11.90;;;2.83;;
3698;SDS011;1865;50.918;7.092;2023-06-26T10:55:51;10.63;;;2.27;;
3698;SDS011;1865;50.918;7.092;2023-06-26T10:58:29;10.23;;;2.17;;
3698;SDS011;1865;50.918;7.092;2023-06-26T11:03:36;9.60;;;2.73;;
3698;SDS011;1865;50.918;7.092;2023-06-26T11:06:09;17.50;;;2.40;;
3698;SDS011;1865;50.918;7.092;2023-06-26T11:08:54;9.10;;;2.50;;
3698;SDS011;1865;50.918;7.092;2023-06-26T11:14:19;12.00;;;2.40;;
3698;SDS011;1865;50.918;7.092;2023-06-26T11:16:46;18.53;;;2.63;;
3698;SDS011;1865;50.918;7.092;2023-06-26T11:19:12;12.20;;;2.27;;
3698;SDS011;1865;50.918;7.092;2023-06-26T11:21:39;14.10;;;2.80;;
3698;SDS011;1865;50.918;7.092;2023-06-26T11:24:04;14.17;;;2.37;;
3698;SDS011;1865;50.918;7.092;2023-06-26T11:26:31;15.90;;;3.33;;
3698;SDS011;1865;50.918;7.092;2023-06-26T11:29:03;13.67;;;3.20;;
3698;SDS011;1865;50.918;7.092;2023-06-26T11:31:32;9.93;;;2.33;;
3698;SDS011;1865;50.918;7.092;2023-06-26T11:34:01;15.40;;;2.40;;
3698;SDS011;1865;50.918;7.092;2023-06-26T11:36:29;11.00;;;2.23;;
3698;SDS011;1865;50.918;7.092;2023-06-26T11:38:55;11.30;;;2.40;;
3698;SDS011;1865;50.918;7.092;2023-06-26T11:41:23;15.67;;;2.40;;
3698;SDS011;1865;50.918;7.092;2023-06-26T11:43:49;10.20;;;2.40;;
3698;SDS011;1865;50.918;7.092;2023-06-26T11:46:17;14.83;;;2.40;;
3698;SDS011;1865;50.918;7.092;2023-06-26T11:48:44;10.23;;;2.80;;
3698;SDS011;1865;50.918;7.092;2023-06-26T11:51:12;12.87;;;2.60;;
3698;SDS011;1865;50.918;7.092;2023-06-26T11:53:39;11.30;;;2.17;;
3698;SDS011;1865;50.918;7.092;2023-06-26T11:56:09;8.50;;;1.87;;
3698;SDS011;1865;50.918;7.092;2023-06-26T11:58:35;11.50;;;2.10;;
3698;SDS011;1865;50.918;7.092;2023-06-26T12:01:01;17.00;;;2.60;;
3698;SDS011;1865;50.918;7.092;2023-06-26T12:03:27;10.37;;;2.30;;
3698;SDS011;1865;50.918;7.092;2023-06-26T12:05:54;9.93;;;2.20;;
3698;SDS011;1865;50.918;7.092;2023-06-26T12:08:20;14.47;;;2.20;;
3698;SDS011;1865;50.918;7.092;2023-06-26T12:10:46;11.50;;;2.43;;
3698;SDS011;1865;50.918;7.092;2023-06-26T12:13:12;16.80;;;2.20;;
3698;SDS011;1865;50.918;7.092;2023-06-26T12:15:38;14.47;;;2.27;;
3698;SDS011;1865;50.918;7.092;2023-06-26T12:18:09;16.20;;;2.60;;
3698;SDS011;1865;50.918;7.092;2023-06-26T12:20:39;15.13;;;2.10;;
3698;SDS011;1865;50.918;7.092;2023-06-26T12:23:11;14.90;;;2.20;;
3698;SDS011;1865;50.918;7.092;2023-06-26T12:25:37;7.97;;;1.67;;
3698;SDS011;1865;50.918;7.092;2023-06-26T12:28:03;10.13;;;1.80;;
3698;SDS011;1865;50.918;7.092;2023-06-26T12:30:39;16.40;;;1.97;;
3698;SDS011;1865;50.918;7.092;2023-06-26T12:33:12;11.87;;;2.43;;
3698;SDS011;1865;50.918;7.092;2023-06-26T12:35:38;14.20;;;1.90;;
3698;SDS011;1865;50.918;7.092;2023-06-26T12:38:07;15.20;;;1.90;;
3698;SDS011;1865;50.918;7.092;2023-06-26T12:40:35;18.63;;;2.23;;
3698;SDS011;1865;50.918;7.092;2023-06-26T12:43:11;10.27;;;2.07;;
3698;SDS011;1865;50.918;7.092;2023-06-26T12:45:37;11.17;;;2.37;;
3698;SDS011;1865;50.918;7.092;2023-06-26T12:48:35;9.40;;;1.80;;
3698;SDS011;1865;50.918;7.092;2023-06-26T12:51:11;11.60;;;2.17;;
3698;SDS011;1865;50.918;7.092;2023-06-26T12:53:38;8.80;;;2.00;;
3698;SDS011;1865;50.918;7.092;2023-06-26T12:56:04;13.43;;;2.10;;
3698;SDS011;1865;50.918;7.092;2023-06-26T12:58:31;17.60;;;2.20;;
3698;SDS011;1865;50.918;7.092;2023-06-26T13:00:57;12.03;;;2.93;;
3698;SDS011;1865;50.918;7.092;2023-06-26T13:03:22;19.33;;;2.50;;
3698;SDS011;1865;50.918;7.092;2023-06-26T13:05:48;12.47;;;2.30;;
3698;SDS011;1865;50.918;7.092;2023-06-26T13:08:14;15.40;;;2.40;;
3698;SDS011;1865;50.918;7.092;2023-06-26T13:10:42;16.33;;;2.30;;
3698;SDS011;1865;50.918;7.092;2023-06-26T13:13:09;13.13;;;1.70;;
3698;SDS011;1865;50.918;7.092;2023-06-26T13:15:37;9.37;;;1.70;;
3698;SDS011;1865;50.918;7.092;2023-06-26T13:18:03;16.80;;;2.00;;
3698;SDS011;1865;50.918;7.092;2023-06-26T13:20:28;19.80;;;1.63;;
3698;SDS011;1865;50.918;7.092;2023-06-26T13:22:54;10.10;;;1.50;;
3698;SDS011;1865;50.918;7.092;2023-06-26T13:25:20;10.03;;;1.30;;
3698;SDS011;1865;50.918;7.092;2023-06-26T13:27:46;10.73;;;1.47;;
3698;SDS011;1865;50.918;7.092;2023-06-26T13:30:13;10.00;;;1.60;;
3698;SDS011;1865;50.918;7.092;2023-06-26T13:32:40;10.40;;;1.90;;
3698;SDS011;1865;50.918;7.092;2023-06-26T13:35:05;13.33;;;1.57;;
3698;SDS011;1865;50.918;7.092;2023-06-26T13:37:33;18.17;;;1.90;;
3698;SDS011;1865;50.918;7.092;2023-06-26T13:39:59;19.83;;;1.93;;
3698;SDS011;1865;50.918;7.092;2023-06-26T13:42:26;10.50;;;1.50;;
3698;SDS011;1865;50.918;7.092;2023-06-26T13:44:52;19.37;;;1.57;;
3698;SDS011;1865;50.918;7.092;2023-06-26T13:47:18;18.67;;;1.63;;
3698;SDS011;1865;50.918;7.092;2023-06-26T13:49:44;15.37;;;1.63;;
3698;SDS011;1865;50.918;7.092;2023-06-26T13:52:09;12.83;;;1.63;;
3698;SDS011;1865;50.918;7.092;2023-06-26T13:54:37;9.37;;;1.37;;
3698;SDS011;1865;50.918;7.092;2023-06-26T13:57:05;10.90;;;1.37;;
3698;SDS011;1865;50.918;7.092;2023-06-26T13:59:31;9.83;;;1.10;;
3698;SDS011;1865;50.918;7.092;2023-06-26T14:01:57;17.87;;;1.57;;
3698;SDS011;1865;50.918;7.092;2023-06-26T14:04:22;13.10;;;1.57;;
3698;SDS011;1865;50.918;7.092;2023-06-26T14:06:48;13.10;;;1.30;;
3698;SDS011;1865;50.918;7.092;2023-06-26T14:09:13;20.53;;;2.17;;
3698;SDS011;1865;50.918;7.092;2023-06-26T14:11:39;10.80;;;1.60;;
3698;SDS011;1865;50.918;7.092;2023-06-26T14:14:05;13.07;;;2.03;;
3698;SDS011;1865;50.918;7.092;2023-06-26T14:16:30;12.43;;;1.50;;
3698;SDS011;1865;50.918;7.092;2023-06-26T14:18:56;14.90;;;1.67;;
3698;SDS011;1865;50.918;7.092;2023-06-26T14:21:22;11.43;;;1.87;;
3698;SDS011;1865;50.918;7.092;2023-06-26T14:23:47;8.77;;;1.67;;
3698;SDS011;1865;50.918;7.092;2023-06-26T14:26:13;13.37;;;1.70;;
3698;SDS011;1865;50.918;7.092;2023-06-26T14:28:39;14.73;;;1.60;;
3698;SDS011;1865;50.918;7.092;2023-06-26T14:31:05;11.00;;;1.50;;
3698;SDS011;1865;50.918;7.092;2023-06-26T14:33:30;9.87;;;1.63;;
3698;SDS011;1865;50.918;7.092;2023-06-26T14:35:56;9.87;;;1.37;;
3698;SDS011;1865;50.918;7.092;2023-06-26T14:38:22;16.50;;;1.70;;
3698;SDS011;1865;50.918;7.092;2023-06-26T14:40:47;12.37;;;1.53;;
3698;SDS011;1865;50.918;7.092;2023-06-26T14:43:13;13.50;;;1.60;;
3698;SDS011;1865;50.918;7.092;2023-06-26T14:45:38;9.90;;;1.17;;
3698;SDS011;1865;50.918;7.092;2023-06-26T14:48:04;11.50;;;1.77;;
3698;SDS011;1865;50.918;7.092;2023-06-26T14:50:29;9.30;;;1.20;;
3698;SDS011;1865;50.918;7.092;2023-06-26T14:52:55;13.87;;;1.70;;
3698;SDS011;1865;50.918;7.092;2023-06-26T14:55:20;15.17;;;1.60;;
3698;SDS011;1865;50.918;7.092;2023-06-26T14:57:46;17.23;;;1.70;;
3698;SDS011;1865;50.918;7.092;2023-06-26T15:00:12;12.70;;;2.00;;
3698;SDS011;1865;50.918;7.092;2023-06-26T15:02:38;25.90;;;2.03;;
3698;SDS011;1865;50.918;7.092;2023-06-26T15:05:03;26.83;;;2.30;;
3698;SDS011;1865;50.918;7.092;2023-06-26T15:07:29;19.97;;;1.90;;
3698;SDS011;1865;50.918;7.092;2023-06-26T15:09:55;12.13;;;1.80;;